Plymouth, Maine
Current Conditions -  °F | °C
As of 8:53 AM on Friday 31 Oct 2014 (Local Time) from KBGR Reporting Station
Scattered Clouds Scattered Clouds  
Wind Chill: 37°   Ceiling: Unl
Heat Index: 40°   Visibility: 10mi
Dew Point: 34°   Wind: 5mph
Humidity: 79%   Direction: 310°NW
Pressure: 30.07"   Gusts: NA
Location:  44.77°N, 69.21°W
Report Text: KBGR 311253Z 31004KT 10SM SCT050 04/01 A3007 RMK AO2 SLP183 T00440011
Loading
Personal Weather Stations






























Interactive Weather Map
Tropical Storm Tracking
New forecast layout! Learn more

10-Day Weather Forecast

Advertisements
Track Severe Weather on mobile